createdAt,value
2023-04-11T00:01:34.906Z,2.00
2023-04-11T00:04:02.088Z,1.70
2023-04-11T00:06:29.189Z,1.77
2023-04-11T00:08:56.767Z,1.90
2023-04-11T00:11:24.214Z,1.65
2023-04-11T00:13:51.083Z,1.77
2023-04-11T00:16:19.520Z,1.70
2023-04-11T00:18:47.210Z,2.00
2023-04-11T00:21:14.217Z,2.13
2023-04-11T00:23:41.224Z,2.08
2023-04-11T00:26:08.139Z,2.05
2023-04-11T00:28:35.955Z,2.03
2023-04-11T00:31:02.896Z,2.28
2023-04-11T00:33:29.711Z,2.53
2023-04-11T00:35:56.736Z,2.20
2023-04-11T00:38:23.633Z,2.17
2023-04-11T00:40:50.620Z,1.60
2023-04-11T00:43:17.520Z,1.73
2023-04-11T00:45:44.597Z,2.10
2023-04-11T00:48:11.730Z,1.75
2023-04-11T00:50:42.473Z,2.00
2023-04-11T00:53:11.839Z,1.80
2023-04-11T00:55:39.320Z,2.00
2023-04-11T00:58:07.234Z,1.90
2023-04-11T01:00:35.486Z,1.73
2023-04-11T01:03:02.815Z,2.08
2023-04-11T01:05:31.769Z,1.70
2023-04-11T01:07:59.962Z,1.90
2023-04-11T01:10:30.741Z,1.65
2023-04-11T01:13:00.224Z,2.35
2023-04-11T01:15:27.588Z,1.70
2023-04-11T01:17:55.609Z,2.10
2023-04-11T01:20:22.787Z,1.90
2023-04-11T01:22:50.559Z,1.40
2023-04-11T01:25:22.383Z,1.80
2023-04-11T01:27:49.314Z,2.30
2023-04-11T01:30:16.818Z,1.73
2023-04-11T01:32:43.691Z,1.67
2023-04-11T01:35:12.252Z,1.88
2023-04-11T01:37:39.676Z,1.90
2023-04-11T01:40:07.474Z,1.80
2023-04-11T01:42:35.762Z,1.80
2023-04-11T01:45:04.249Z,2.25
2023-04-11T01:47:31.459Z,2.03
2023-04-11T01:49:58.371Z,2.40
2023-04-11T01:52:25.222Z,1.92
2023-04-11T01:54:52.113Z,1.80
2023-04-11T01:57:18.948Z,1.90
2023-04-11T01:59:45.831Z,1.65
2023-04-11T02:02:12.914Z,2.15
2023-04-11T02:04:39.825Z,1.88
2023-04-11T02:07:07.260Z,1.95
2023-04-11T02:09:34.029Z,1.85
2023-04-11T02:12:00.992Z,2.10
2023-04-11T02:14:38.531Z,2.30
2023-04-11T02:17:06.945Z,2.13
2023-04-11T02:19:34.612Z,1.98
2023-04-11T02:22:01.900Z,1.80
2023-04-11T02:24:29.198Z,1.90
2023-04-11T02:26:56.644Z,1.92
2023-04-11T02:29:25.418Z,1.80
2023-04-11T02:31:52.342Z,2.20
2023-04-11T02:34:19.278Z,1.85
2023-04-11T02:36:46.495Z,2.30
2023-04-11T02:39:14.045Z,2.10
2023-04-11T02:41:42.106Z,2.15
2023-04-11T02:44:11.283Z,2.35
2023-04-11T02:46:39.825Z,2.78
2023-04-11T02:49:08.687Z,1.88
2023-04-11T02:51:35.888Z,2.17
2023-04-11T02:54:02.789Z,2.05
2023-04-11T02:56:30.903Z,2.20
2023-04-11T02:58:58.570Z,2.03
2023-04-11T03:01:27.436Z,2.03
2023-04-11T03:03:55.817Z,2.13
2023-04-11T03:06:27.093Z,2.00
2023-04-11T03:08:59.104Z,2.00
2023-04-11T03:11:26.422Z,1.80
2023-04-11T03:13:53.374Z,2.20
2023-04-11T03:16:20.369Z,1.90
2023-04-11T03:18:47.212Z,2.17
2023-04-11T03:21:14.108Z,1.90
2023-04-11T03:23:44.318Z,3.08
2023-04-11T03:26:14.363Z,2.00
2023-04-11T03:28:42.829Z,2.20
2023-04-11T03:31:12.897Z,2.20
2023-04-11T03:33:40.190Z,2.33
2023-04-11T03:36:07.520Z,2.08
2023-04-11T03:38:35.153Z,2.35
2023-04-11T03:41:02.233Z,1.90
2023-04-11T03:43:29.358Z,2.95
2023-04-11T03:45:56.553Z,1.83
2023-04-11T03:48:33.513Z,1.70
2023-04-11T03:51:05.530Z,1.98
2023-04-11T03:53:39.190Z,1.50
2023-04-11T03:56:22.283Z,1.80
2023-04-11T03:58:49.414Z,1.88
2023-04-11T04:01:18.825Z,1.88
2023-04-11T04:03:47.497Z,1.77
2023-04-11T04:06:14.792Z,2.50
2023-04-11T04:08:41.813Z,1.63
2023-04-11T04:11:08.729Z,1.63
2023-04-11T04:13:37.111Z,1.52
2023-04-11T04:16:17.672Z,1.50
2023-04-11T04:18:50.447Z,1.38
2023-04-11T04:21:18.012Z,1.80
2023-04-11T04:23:47.688Z,1.83
2023-04-11T04:26:31.236Z,1.58
2023-04-11T04:29:10.173Z,0.82
2023-04-11T04:31:56.973Z,0.60
2023-04-11T04:34:34.837Z,0.38
2023-04-11T04:37:02.045Z,0.75
2023-04-11T04:39:39.342Z,0.50
2023-04-11T04:42:08.263Z,0.40
2023-04-11T04:44:39.070Z,0.20
2023-04-11T04:47:14.652Z,0.30
2023-04-11T04:49:42.808Z,0.30
2023-04-11T04:52:09.696Z,0.30
2023-04-11T04:54:36.890Z,0.30
2023-04-11T04:57:03.969Z,0.38
2023-04-11T04:59:31.555Z,0.50
2023-04-11T05:02:08.136Z,0.40
2023-04-11T05:04:35.408Z,2.60
2023-04-11T05:07:03.095Z,0.70
2023-04-11T05:09:31.279Z,0.70
2023-04-11T05:12:09.136Z,0.60
2023-04-11T05:14:38.518Z,0.50
2023-04-11T05:17:06.324Z,0.57
2023-04-11T05:19:33.276Z,0.50
2023-04-11T05:22:00.570Z,0.88
2023-04-11T05:24:27.436Z,0.50
2023-04-11T05:26:56.727Z,0.80
2023-04-11T05:29:23.764Z,0.50
2023-04-11T05:31:50.942Z,0.50
2023-04-11T05:34:18.083Z,0.70
2023-04-11T05:36:48.031Z,0.63
2023-04-11T05:39:14.998Z,0.60
2023-04-11T05:41:42.004Z,0.70
2023-04-11T05:44:08.881Z,1.10
2023-04-11T05:46:37.195Z,1.70
2023-04-11T05:49:04.357Z,0.80
2023-04-11T05:51:31.388Z,0.90
2023-04-11T05:53:58.505Z,0.73
2023-04-11T05:56:25.716Z,0.70
2023-04-11T05:58:52.689Z,0.98
2023-04-11T06:01:19.595Z,0.63
2023-04-11T06:03:47.005Z,0.63
2023-04-11T06:06:14.211Z,0.70
2023-04-11T06:08:41.116Z,0.80
2023-04-11T06:11:08.171Z,0.50
2023-04-11T06:13:35.037Z,0.63
2023-04-11T06:16:02.176Z,0.70
2023-04-11T06:18:29.040Z,0.63
2023-04-11T06:20:55.852Z,0.70
2023-04-11T06:23:22.727Z,0.77
2023-04-11T06:25:49.608Z,0.50
2023-04-11T06:28:16.529Z,0.68
2023-04-11T06:30:43.374Z,0.65
2023-04-11T06:33:10.472Z,0.60
2023-04-11T06:35:37.529Z,0.65
2023-04-11T06:38:04.400Z,0.70
2023-04-11T06:40:31.269Z,0.70
2023-04-11T06:43:00.187Z,0.60
2023-04-11T06:45:27.159Z,0.70
2023-04-11T06:47:54.095Z,0.63
2023-04-11T06:50:20.964Z,0.40
2023-04-11T06:52:47.780Z,0.50
2023-04-11T06:55:15.524Z,0.50
2023-04-11T06:57:43.970Z,0.60
2023-04-11T07:00:12.968Z,0.63
2023-04-11T07:02:40.067Z,0.63
2023-04-11T07:05:09.309Z,0.50
2023-04-11T07:07:36.533Z,0.90
2023-04-11T07:10:04.227Z,0.90
2023-04-11T07:12:31.119Z,0.75
2023-04-11T07:14:57.994Z,0.70
2023-04-11T07:17:24.862Z,0.82
2023-04-11T07:19:51.938Z,1.15
2023-04-11T07:22:19.286Z,0.85
2023-04-11T07:24:46.739Z,0.60
2023-04-11T07:27:14.201Z,0.90
2023-04-11T07:29:41.230Z,0.70
2023-04-11T07:32:08.085Z,1.00
2023-04-11T07:34:34.969Z,0.93
2023-04-11T07:37:01.878Z,0.73
2023-04-11T07:39:28.924Z,0.75
2023-04-11T07:41:56.413Z,0.68
2023-04-11T07:44:24.009Z,0.85
2023-04-11T07:46:51.251Z,0.60
2023-04-11T07:49:18.115Z,0.90
2023-04-11T07:51:44.984Z,0.82
2023-04-11T07:54:12.312Z,1.13
2023-04-11T07:56:39.210Z,1.42
2023-04-11T07:59:06.149Z,1.02
2023-04-11T08:01:33.254Z,1.50
2023-04-11T08:04:00.661Z,0.88
2023-04-11T08:06:29.141Z,1.00
2023-04-11T08:08:56.339Z,1.10
2023-04-11T08:11:23.281Z,1.83
2023-04-11T08:13:50.764Z,0.77
2023-04-11T08:16:17.809Z,1.77
2023-04-11T08:18:45.836Z,1.00
2023-04-11T08:21:12.849Z,0.70
2023-04-11T08:23:42.078Z,0.90
2023-04-11T08:26:10.715Z,1.15
2023-04-11T08:28:37.642Z,0.95
2023-04-11T08:31:05.711Z,1.20
2023-04-11T08:33:33.847Z,1.90
2023-04-11T08:36:00.722Z,1.60
2023-04-11T08:38:27.696Z,1.40
2023-04-11T08:40:55.241Z,1.63
2023-04-11T08:43:22.501Z,0.80
2023-04-11T08:45:49.779Z,0.70
2023-04-11T08:48:16.789Z,0.80
2023-04-11T08:50:44.561Z,1.08
2023-04-11T08:53:12.251Z,1.25
2023-04-11T08:55:48.372Z,2.30
2023-04-11T08:58:15.422Z,0.90
2023-04-11T09:00:42.780Z,0.98
2023-04-11T09:03:11.240Z,1.05
2023-04-11T09:05:46.825Z,0.80
2023-04-11T09:08:15.372Z,0.82
2023-04-11T09:10:45.508Z,1.13
2023-04-11T09:13:21.369Z,0.80
2023-04-11T09:15:48.485Z,0.90
2023-04-11T09:18:35.441Z,0.90
2023-04-11T09:21:13.674Z,1.10
2023-04-11T09:23:41.133Z,1.02
2023-04-11T09:26:09.794Z,1.35
2023-04-11T09:28:44.793Z,1.00
2023-04-11T09:31:14.960Z,2.95
2023-04-11T09:33:57.125Z,1.10
2023-04-11T09:36:27.239Z,1.30
2023-04-11T09:41:36.030Z,1.40
2023-04-11T09:44:03.212Z,1.60
2023-04-11T09:46:30.325Z,1.25
2023-04-11T09:48:57.284Z,1.33
2023-04-11T09:56:22.169Z,1.05
2023-04-11T09:58:50.195Z,1.17
2023-04-11T10:01:20.012Z,0.98
2023-04-11T10:03:50.897Z,1.23
2023-04-11T10:06:31.664Z,1.00
2023-04-11T10:09:10.906Z,2.15
2023-04-11T10:11:44.077Z,1.00
2023-04-11T10:14:38.940Z,1.00
2023-04-11T10:17:19.817Z,1.20
2023-04-11T10:19:50.627Z,0.98
2023-04-11T10:22:38.930Z,0.93
2023-04-11T10:25:18.932Z,0.93
2023-04-11T10:30:14.603Z,1.10
2023-04-11T10:32:44.249Z,1.50
2023-04-11T10:35:16.991Z,0.90
2023-04-11T10:37:43.910Z,1.20
2023-04-11T10:40:11.215Z,1.00
2023-04-11T10:42:45.951Z,1.13
2023-04-11T10:45:26.555Z,1.05
2023-04-11T10:48:14.323Z,1.10
2023-04-11T10:50:45.907Z,1.00
2023-04-11T10:53:38.837Z,0.93
2023-04-11T10:56:06.045Z,1.00
2023-04-11T10:58:39.422Z,1.00
2023-04-11T11:01:26.624Z,2.30
2023-04-11T11:04:04.639Z,2.90
2023-04-11T11:06:36.203Z,1.50
2023-04-11T11:09:23.651Z,1.20
2023-04-11T11:12:17.162Z,1.67
2023-04-11T11:14:46.116Z,1.20
2023-04-11T11:17:14.841Z,1.60
2023-04-11T11:19:46.211Z,1.00
2023-04-11T11:22:17.274Z,1.45
2023-04-11T11:24:44.189Z,1.95
2023-04-11T11:27:21.523Z,1.45
2023-04-11T11:29:48.684Z,0.68
2023-04-11T11:32:29.166Z,1.02
2023-04-11T11:34:57.608Z,1.23
2023-04-11T11:37:25.826Z,1.10
2023-04-11T11:39:53.118Z,1.20
2023-04-11T11:42:20.480Z,1.05
2023-04-11T11:44:47.418Z,1.02
2023-04-11T11:47:17.422Z,1.00
2023-04-11T11:49:54.749Z,1.52
2023-04-11T11:52:39.750Z,0.80
2023-04-11T11:55:20.007Z,0.80
2023-04-11T11:57:48.913Z,1.25
2023-04-11T12:00:23.704Z,1.65
2023-04-11T12:02:53.301Z,1.02
2023-04-11T12:05:21.029Z,0.80
2023-04-11T12:07:54.708Z,0.80
2023-04-11T12:10:21.763Z,0.75
2023-04-11T12:12:53.668Z,0.85
2023-04-11T12:15:23.743Z,0.98
2023-04-11T12:17:52.797Z,0.88
2023-04-11T12:20:24.520Z,2.00
2023-04-11T12:22:53.021Z,1.17
2023-04-11T12:27:48.763Z,2.40
2023-04-11T12:30:15.894Z,2.65
2023-04-11T12:32:43.749Z,2.63
2023-04-11T12:35:11.543Z,1.77
2023-04-11T12:37:38.645Z,0.77
2023-04-11T12:40:12.904Z,1.00
2023-04-11T12:45:11.462Z,0.98
2023-04-11T12:47:38.925Z,1.08
2023-04-11T12:50:07.168Z,1.10
2023-04-11T12:52:34.454Z,0.90
2023-04-11T12:55:01.639Z,1.33
2023-04-11T12:57:28.777Z,0.90
2023-04-11T12:59:55.942Z,1.20
2023-04-11T13:02:23.793Z,1.00
2023-04-11T13:04:54.979Z,0.98
2023-04-11T13:07:22.277Z,1.25
2023-04-11T13:09:49.692Z,1.25
2023-04-11T13:12:16.661Z,1.00
2023-04-11T13:14:43.510Z,1.50
2023-04-11T13:17:10.592Z,0.88
2023-04-11T13:19:37.416Z,0.98
2023-04-11T13:22:04.923Z,1.10
2023-04-11T13:24:32.129Z,1.00
2023-04-11T13:26:59.155Z,1.13
2023-04-11T13:29:26.196Z,0.98
2023-04-11T13:31:53.276Z,0.90
2023-04-11T13:34:20.665Z,1.27
2023-04-11T13:36:47.805Z,1.00
2023-04-11T13:39:14.909Z,1.27
2023-04-11T13:41:41.850Z,1.10
2023-04-11T13:44:08.666Z,0.88
2023-04-11T13:46:35.578Z,1.20
2023-04-11T13:49:02.493Z,1.10
2023-04-11T13:51:29.316Z,1.20
2023-04-11T13:53:56.160Z,1.10
2023-04-11T13:56:23.351Z,1.15
2023-04-11T13:58:50.757Z,1.08
2023-04-11T14:01:20.187Z,1.20
2023-04-11T14:03:47.832Z,2.30
2023-04-11T14:06:14.912Z,1.00
2023-04-11T14:08:41.810Z,1.00
2023-04-11T14:11:08.733Z,1.10
2023-04-11T14:13:35.658Z,1.15
2023-04-11T14:16:08.736Z,1.90
2023-04-11T14:18:36.554Z,1.17
2023-04-11T14:21:08.113Z,1.85
2023-04-11T14:23:35.119Z,1.17
2023-04-11T14:26:02.042Z,1.42
2023-04-11T14:28:28.933Z,1.42
2023-04-11T14:30:56.459Z,1.30
2023-04-11T14:33:23.644Z,1.30
2023-04-11T14:35:51.178Z,1.60
2023-04-11T14:38:18.221Z,1.10
2023-04-11T14:40:45.483Z,0.98
2023-04-11T14:43:12.345Z,1.13
2023-04-11T14:45:39.306Z,0.95
2023-04-11T14:48:06.738Z,1.08
2023-04-11T14:50:33.869Z,0.98
2023-04-11T14:53:01.142Z,1.17
2023-04-11T14:55:28.104Z,1.05
2023-04-11T14:57:55.941Z,1.27
2023-04-11T15:00:25.062Z,1.40
2023-04-11T15:02:54.337Z,1.25
2023-04-11T15:05:23.220Z,1.50
2023-04-11T15:07:51.914Z,1.58
2023-04-11T15:10:20.833Z,2.35
2023-04-11T15:12:47.969Z,1.90
2023-04-11T15:15:15.667Z,1.98
2023-04-11T15:17:45.718Z,1.95
2023-04-11T15:20:16.551Z,2.30
2023-04-11T15:22:45.418Z,1.52
2023-04-11T15:25:15.079Z,1.40
2023-04-11T15:27:42.872Z,1.35
2023-04-11T15:30:11.272Z,1.20
2023-04-11T15:32:44.881Z,1.10
2023-04-11T15:35:12.244Z,1.63
2023-04-11T15:37:39.446Z,3.00
2023-04-11T15:40:07.122Z,2.88
2023-04-11T15:42:35.458Z,2.13
2023-04-11T15:45:02.732Z,1.38
2023-04-11T15:47:30.482Z,1.52
2023-04-11T15:49:59.057Z,3.45
2023-04-11T15:52:26.388Z,3.70
2023-04-11T15:54:53.364Z,2.75
2023-04-11T15:57:20.341Z,1.38
2023-04-11T15:59:47.853Z,1.17
2023-04-11T16:02:15.402Z,1.60
2023-04-11T16:04:46.213Z,2.78
2023-04-11T16:07:18.182Z,2.67
2023-04-11T16:09:45.236Z,2.15
2023-04-11T16:12:12.047Z,1.77
2023-04-11T16:14:38.944Z,1.80
2023-04-11T16:17:05.764Z,1.88
2023-04-11T16:19:32.555Z,1.20
2023-04-11T16:21:59.464Z,1.00
2023-04-11T16:24:29.230Z,1.45
2023-04-11T16:26:57.257Z,1.30
2023-04-11T16:29:25.397Z,2.90
2023-04-11T16:31:52.404Z,1.88
2023-04-11T16:34:19.376Z,1.30
2023-04-11T16:36:46.427Z,1.77
2023-04-11T16:39:13.606Z,1.17
2023-04-11T16:41:40.531Z,1.20
2023-04-11T16:44:11.290Z,1.50
2023-04-11T16:46:39.383Z,1.08
2023-04-11T16:49:06.601Z,1.55
2023-04-11T16:51:34.123Z,1.98
2023-04-11T16:54:02.885Z,1.70
2023-04-11T16:56:29.989Z,2.15
2023-04-11T16:58:57.038Z,2.28
2023-04-11T17:01:23.923Z,1.58
2023-04-11T17:03:52.474Z,1.83
2023-04-11T17:06:19.529Z,1.60
2023-04-11T17:08:46.478Z,1.10
2023-04-11T17:11:13.812Z,1.10
2023-04-11T17:13:45.716Z,1.70
2023-04-11T17:16:13.713Z,1.70
2023-04-11T17:18:40.972Z,1.65
2023-04-11T17:21:07.994Z,1.65
2023-04-11T17:23:43.032Z,1.27
2023-04-11T17:26:11.605Z,1.30
2023-04-11T17:28:42.333Z,1.60
2023-04-11T17:31:17.321Z,1.50
2023-04-11T17:33:44.587Z,1.63
2023-04-11T17:36:12.844Z,1.60
2023-04-11T17:38:42.107Z,1.35
2023-04-11T17:46:05.828Z,1.58
2023-04-11T17:48:32.702Z,1.80
2023-04-11T17:50:59.605Z,2.25
2023-04-11T17:53:26.527Z,2.88
2023-04-11T17:55:54.429Z,2.30
2023-04-11T17:58:22.516Z,1.80
2023-04-11T18:00:56.597Z,2.85
2023-04-11T18:03:25.295Z,1.58
2023-04-11T18:05:54.576Z,1.63
2023-04-11T18:08:35.450Z,1.40
2023-04-11T18:11:09.978Z,2.03
2023-04-11T18:13:38.136Z,1.50
2023-04-11T18:16:05.129Z,1.45
2023-04-11T18:18:31.970Z,1.50
2023-04-11T18:21:08.234Z,1.50
2023-04-11T18:23:35.693Z,1.08
2023-04-11T18:26:02.563Z,1.13
2023-04-11T18:28:29.827Z,1.40
2023-04-11T18:30:56.940Z,1.30
2023-04-11T18:33:26.350Z,1.70
2023-04-11T18:35:54.175Z,1.40
2023-04-11T18:38:21.387Z,1.70
2023-04-11T18:40:49.039Z,1.60
2023-04-11T18:43:15.992Z,1.60
2023-04-11T18:45:43.912Z,1.58
2023-04-11T18:48:11.743Z,3.22
2023-04-11T18:50:42.753Z,2.33
2023-04-11T18:53:13.581Z,1.70
2023-04-11T18:55:41.446Z,1.85
2023-04-11T18:58:10.042Z,2.05
2023-04-11T19:00:39.163Z,1.73
2023-04-11T19:03:14.872Z,1.80
2023-04-11T19:05:44.009Z,2.00
2023-04-11T19:08:11.352Z,2.07
2023-04-11T19:10:38.346Z,2.42
2023-04-11T19:13:06.938Z,2.30
2023-04-11T19:15:35.597Z,2.70
2023-04-11T19:18:02.590Z,2.17
2023-04-11T19:20:29.517Z,2.00
2023-04-11T19:22:56.574Z,2.03
2023-04-11T19:25:23.497Z,2.80
2023-04-11T19:27:51.065Z,2.90
2023-04-11T19:30:18.992Z,2.42
2023-04-11T19:32:47.681Z,2.58
2023-04-11T19:35:15.672Z,2.70
2023-04-11T19:37:42.923Z,2.67
2023-04-11T19:40:13.825Z,2.72
2023-04-11T19:42:42.402Z,2.50
2023-04-11T19:45:11.488Z,2.30
2023-04-11T19:47:39.951Z,2.70
2023-04-11T19:50:13.345Z,2.65
2023-04-11T19:52:41.907Z,2.60
2023-04-11T19:55:11.325Z,2.53
2023-04-11T19:57:38.939Z,2.73
2023-04-11T20:00:14.098Z,2.67
2023-04-11T20:02:44.770Z,2.35
2023-04-11T20:05:13.880Z,2.70
2023-04-11T20:07:42.445Z,2.40
2023-04-11T20:10:10.332Z,2.63
2023-04-11T20:12:37.216Z,2.50
2023-04-11T20:15:04.331Z,2.60
2023-04-11T20:17:31.285Z,3.28
2023-04-11T20:19:58.285Z,2.85
2023-04-11T20:22:26.346Z,3.30
2023-04-11T20:24:54.446Z,2.35
2023-04-11T20:27:22.012Z,2.17
2023-04-11T20:29:49.852Z,2.40
2023-04-11T20:32:16.801Z,2.25
2023-04-11T20:34:43.631Z,2.25
2023-04-11T20:37:10.516Z,2.95
2023-04-11T20:39:37.686Z,1.98
2023-04-11T20:42:04.945Z,2.53
2023-04-11T20:44:34.114Z,2.60
2023-04-11T20:47:01.119Z,2.90
2023-04-11T20:49:28.376Z,2.63
2023-04-11T20:51:55.431Z,2.85
2023-04-11T20:54:23.601Z,2.40
2023-04-11T20:56:52.567Z,2.20
2023-04-11T20:59:20.670Z,2.35
2023-04-11T21:01:49.177Z,2.60
2023-04-11T21:04:19.275Z,2.50
2023-04-11T21:09:13.985Z,2.70
2023-04-11T21:11:40.994Z,2.20
2023-04-11T21:14:09.200Z,1.77
2023-04-11T21:16:36.530Z,1.60
2023-04-11T21:19:03.400Z,1.50
2023-04-11T21:21:31.091Z,1.30
2023-04-11T21:23:58.187Z,1.40
2023-04-11T21:26:26.325Z,2.65
2023-04-11T21:28:53.118Z,1.33
2023-04-11T21:31:19.976Z,1.20
2023-04-11T21:33:47.763Z,1.35
2023-04-11T21:36:14.613Z,1.77
2023-04-11T21:38:42.430Z,1.50
2023-04-11T21:41:09.849Z,1.40
2023-04-11T21:43:36.793Z,1.48
2023-04-11T21:46:03.723Z,1.88
2023-04-11T21:48:30.832Z,1.63
2023-04-11T21:50:58.550Z,1.25
2023-04-11T21:53:25.510Z,1.50
2023-04-11T21:55:52.366Z,1.67
2023-04-11T21:58:29.171Z,1.80
2023-04-11T22:00:56.747Z,1.70
2023-04-11T22:03:24.615Z,2.10
2023-04-11T22:05:52.669Z,2.40
2023-04-11T22:08:22.724Z,2.00
2023-04-11T22:10:50.830Z,1.75
2023-04-11T22:13:19.448Z,1.70
2023-04-11T22:15:48.927Z,2.00
2023-04-11T22:18:16.040Z,1.50
2023-04-11T22:20:44.931Z,1.55
2023-04-11T22:23:12.995Z,2.28
2023-04-11T22:25:44.373Z,2.20
2023-04-11T22:28:15.703Z,1.80
2023-04-11T22:30:43.975Z,1.80
2023-04-11T22:33:14.316Z,1.85
2023-04-11T22:35:43.968Z,1.60
2023-04-11T22:38:12.140Z,1.63
2023-04-11T22:40:40.102Z,1.70
2023-04-11T22:43:07.158Z,2.13
2023-04-11T22:45:37.295Z,2.03
2023-04-11T22:50:38.972Z,1.60
2023-04-11T22:53:10.059Z,1.80
2023-04-11T22:55:37.049Z,2.08
2023-04-11T22:58:03.991Z,1.65
2023-04-11T23:00:31.465Z,1.50
2023-04-11T23:02:59.804Z,1.80
2023-04-11T23:05:26.931Z,1.95
2023-04-11T23:07:54.090Z,1.88
2023-04-11T23:10:21.519Z,1.40
2023-04-11T23:12:49.953Z,1.60
2023-04-11T23:15:17.446Z,1.63
2023-04-11T23:17:45.842Z,1.30
2023-04-11T23:20:13.948Z,1.60
2023-04-11T23:22:42.539Z,1.63
2023-04-11T23:25:15.026Z,1.38
2023-04-11T23:27:43.570Z,1.63
2023-04-11T23:30:12.245Z,1.33
2023-04-11T23:32:40.011Z,1.50
2023-04-11T23:35:08.428Z,1.83
2023-04-11T23:37:35.525Z,1.63
2023-04-11T23:40:11.297Z,1.80
2023-04-11T23:42:39.357Z,1.42
2023-04-11T23:45:07.456Z,1.52
2023-04-11T23:47:35.587Z,1.80
2023-04-11T23:50:02.961Z,1.30
2023-04-11T23:52:30.385Z,2.58
2023-04-11T23:54:58.431Z,1.55
2023-04-11T23:57:25.442Z,1.60
2023-04-11T23:59:52.391Z,1.60
